Fort Hunter, New York
Current Conditions -  °F | °C
As of 12:55 PM on Friday 19 Dec 2014 (Local Time) from KNY0 Reporting Station
Overcast Overcast  
Wind Chill: -9°   Ceiling: 1600
Heat Index: -4°   Visibility: 10mi
Dew Point: -7°   Wind: 8mph
Humidity: 79%   Direction: 280°W
Pressure: 30.04"   Gusts: 16mph
Location:  42.94°N, 74.28°W
Report Text: KNY0 191755Z AUTO 28007G14KT 10SM OVC016 M04/M07 A3004 RMK AO2 T10431074 11038 21043
Loading
Personal Weather Stations






























Interactive Weather Map New forecast layout! Learn more

10-Day Weather Forecast

Advertisements
Track Severe Weather on mobile